Qandahar, Afghanistan
Current Conditions -  °F | °C
As of 2:55 PM on Saturday 25 Oct 2014 (Local Time) from OAKN Reporting Station
Scattered Clouds Scattered Clouds  
Wind Chill: 82°   Ceiling: Unl
Heat Index: 82°   Visibility: 6mi
Dew Point: 14°   Wind: 10mph
Humidity: 8%   Direction: 300°WNW
Pressure: 30"   Gusts: 21mph
Location:  31.61°N, 65.69°E
Report Text: OAKN 251055Z 30009G18KT 9999 FEW140 SCT200 28/M10 Q1016 RMK A3000 DA5494 BLU
Loading
Personal Weather Stations






























Interactive Weather Map
Tropical Storm Tracking
New forecast layout! Learn more

10-Day Weather Forecast

Advertisements
Track Severe Weather on mobile